createdAt,value
2018-12-01T00:01:59.636Z,93.90
2018-12-01T00:04:27.897Z,93.90
2018-12-01T00:06:56.172Z,93.80
2018-12-01T00:09:24.474Z,93.70
2018-12-01T00:11:52.765Z,93.80
2018-12-01T00:14:20.994Z,94.10
2018-12-01T00:16:49.281Z,93.60
2018-12-01T00:19:17.557Z,93.80
2018-12-01T00:21:45.831Z,93.90
2018-12-01T00:24:14.113Z,93.90
2018-12-01T00:26:42.366Z,94.20
2018-12-01T00:29:10.650Z,94.00
2018-12-01T00:31:38.949Z,94.00
2018-12-01T00:34:07.202Z,93.90
2018-12-01T00:36:35.469Z,93.70
2018-12-01T00:39:05.165Z,93.80
2018-12-01T00:41:33.362Z,93.70
2018-12-01T00:44:01.698Z,93.60
2018-12-01T00:46:30.025Z,93.80
2018-12-01T00:48:58.285Z,94.10
2018-12-01T00:51:26.553Z,94.00
2018-12-01T00:53:54.759Z,94.00
2018-12-01T00:56:23.011Z,93.70
2018-12-01T00:58:51.286Z,93.80
2018-12-01T01:01:20.105Z,93.50
2018-12-01T01:03:48.468Z,93.50
2018-12-01T01:06:16.813Z,93.40
2018-12-01T01:08:45.037Z,93.50
2018-12-01T01:11:13.280Z,93.40
2018-12-01T01:13:41.553Z,93.70
2018-12-01T01:16:09.864Z,93.90
2018-12-01T01:18:38.115Z,93.90
2018-12-01T01:21:06.389Z,93.90
2018-12-01T01:23:34.690Z,93.90
2018-12-01T01:26:02.933Z,94.10
2018-12-01T01:28:31.244Z,94.20
2018-12-01T01:30:59.509Z,94.30
2018-12-01T01:33:29.829Z,94.50
2018-12-01T01:35:58.132Z,94.50
2018-12-01T01:38:26.463Z,94.60
2018-12-01T01:41:00.059Z,94.50
2018-12-01T01:43:28.370Z,94.40
2018-12-01T01:45:56.626Z,94.30
2018-12-01T01:48:24.894Z,94.30
2018-12-01T01:50:53.210Z,94.20
2018-12-01T01:53:21.453Z,94.00
2018-12-01T01:55:49.727Z,94.20
2018-12-01T01:58:18.027Z,94.20
2018-12-01T02:00:46.276Z,94.20
2018-12-01T02:03:14.558Z,94.20
2018-12-01T02:05:42.801Z,94.30
2018-12-01T02:08:11.058Z,94.30
2018-12-01T02:10:39.218Z,94.30
2018-12-01T02:13:07.446Z,94.40
2018-12-01T02:15:35.677Z,94.30
2018-12-01T02:18:03.857Z,94.40
2018-12-01T02:20:32.041Z,94.20
2018-12-01T02:23:00.193Z,94.50
2018-12-01T02:25:28.365Z,94.30
2018-12-01T02:27:56.561Z,94.20
2018-12-01T02:30:24.718Z,94.10
2018-12-01T02:32:52.890Z,94.10
2018-12-01T02:35:24.012Z,94.00
2018-12-01T02:37:52.205Z,93.90
2018-12-01T02:40:20.390Z,93.80
2018-12-01T02:42:48.573Z,93.70
2018-12-01T02:45:28.298Z,93.70
2018-12-01T02:47:56.500Z,93.80
2018-12-01T02:50:26.276Z,94.00
2018-12-01T02:52:55.442Z,93.90
2018-12-01T02:55:23.677Z,94.00
2018-12-01T02:57:51.826Z,94.10
2018-12-01T03:00:20.201Z,94.20
2018-12-01T03:02:48.397Z,94.10
2018-12-01T03:05:16.544Z,94.20
2018-12-01T03:07:44.729Z,94.20
2018-12-01T03:10:14.704Z,94.10
2018-12-01T03:12:42.932Z,94.40
2018-12-01T03:15:12.885Z,94.10
2018-12-01T03:17:41.181Z,94.10
2018-12-01T03:20:13.156Z,94.10
2018-12-01T03:22:41.361Z,94.10
2018-12-01T03:25:10.617Z,93.90
2018-12-01T03:27:38.905Z,93.80
2018-12-01T03:31:10.342Z,93.80
2018-12-01T03:33:38.550Z,93.90
2018-12-01T03:36:06.735Z,93.90
2018-12-01T03:38:34.922Z,93.90
2018-12-01T03:41:03.065Z,94.20
2018-12-01T03:43:31.246Z,94.20
2018-12-01T03:45:59.432Z,94.20
2018-12-01T03:48:27.585Z,94.30
2018-12-01T03:50:55.757Z,94.20
2018-12-01T03:53:23.957Z,94.10
2018-12-01T03:55:52.160Z,94.20
2018-12-01T03:58:20.385Z,94.30
2018-12-01T04:00:48.600Z,94.30
2018-12-01T04:03:16.838Z,94.40
2018-12-01T04:05:45.001Z,94.20
2018-12-01T04:08:14.424Z,94.10
2018-12-01T04:10:42.697Z,94.10
2018-12-01T04:13:10.852Z,94.00
2018-12-01T04:15:39.055Z,94.00
2018-12-01T04:18:07.201Z,94.10
2018-12-01T04:20:35.369Z,94.00
2018-12-01T04:23:03.573Z,94.10
2018-12-01T04:25:31.721Z,94.10
2018-12-01T04:27:59.897Z,94.20
2018-12-01T04:30:28.089Z,94.30
2018-12-01T04:32:56.240Z,94.30
2018-12-01T04:35:24.828Z,94.40
2018-12-01T04:37:55.034Z,94.30
2018-12-01T04:40:23.482Z,94.40
2018-12-01T04:42:51.785Z,94.50
2018-12-01T04:45:20.013Z,94.50
2018-12-01T04:47:48.144Z,94.50
2018-12-01T04:50:17.304Z,94.50
2018-12-01T04:52:46.523Z,94.50
2018-12-01T04:55:15.801Z,94.50
2018-12-01T04:57:44.017Z,94.50
2018-12-01T05:00:14.318Z,94.60
2018-12-01T05:02:42.526Z,94.60
2018-12-01T05:05:11.977Z,94.50
2018-12-01T05:07:40.233Z,94.90
2018-12-01T05:10:11.593Z,94.60
2018-12-01T05:12:39.837Z,94.60
2018-12-01T05:15:13.804Z,94.50
2018-12-01T05:17:42.027Z,94.60
2018-12-01T05:20:12.484Z,94.60
2018-12-01T05:22:40.705Z,94.60
2018-12-01T05:25:09.676Z,94.60
2018-12-01T05:27:37.869Z,94.70
2018-12-01T05:30:07.003Z,94.70
2018-12-01T05:32:35.733Z,94.70
2018-12-01T05:35:04.700Z,94.70
2018-12-01T05:37:32.921Z,94.50
2018-12-01T05:40:01.105Z,94.60
2018-12-01T05:42:29.259Z,94.60
2018-12-01T05:44:57.441Z,94.70
2018-12-01T05:47:25.672Z,94.70
2018-12-01T05:49:53.882Z,94.70
2018-12-01T05:52:22.066Z,95.10
2018-12-01T05:54:50.254Z,94.80
2018-12-01T05:57:18.401Z,94.80
2018-12-01T05:59:46.589Z,94.80
2018-12-01T06:02:14.775Z,94.80
2018-12-01T06:04:42.925Z,94.70
2018-12-01T06:07:11.113Z,94.70
2018-12-01T06:09:39.304Z,94.70
2018-12-01T06:12:07.553Z,94.70
2018-12-01T06:14:35.725Z,94.70
2018-12-01T06:17:03.927Z,94.70
2018-12-01T06:19:32.073Z,94.60
2018-12-01T06:22:00.238Z,94.50
2018-12-01T06:24:28.429Z,94.40
2018-12-01T06:26:56.581Z,94.40
2018-12-01T06:29:24.761Z,94.40
2018-12-01T06:31:52.989Z,94.70
2018-12-01T06:34:21.211Z,94.90
2018-12-01T06:36:49.396Z,95.20
2018-12-01T06:39:17.573Z,94.90
2018-12-01T06:41:45.737Z,95.00
2018-12-01T06:44:13.896Z,94.70
2018-12-01T06:46:42.101Z,94.60
2018-12-01T06:49:10.253Z,94.60
2018-12-01T06:51:38.475Z,94.70
2018-12-01T06:54:06.630Z,94.60
2018-12-01T06:56:34.775Z,94.60
2018-12-01T06:59:02.946Z,94.70
2018-12-01T07:01:31.128Z,94.80
2018-12-01T07:03:59.284Z,94.80
2018-12-01T07:06:27.481Z,94.60
2018-12-01T07:08:55.666Z,94.70
2018-12-01T07:11:23.810Z,94.60
2018-12-01T07:13:51.994Z,94.60
2018-12-01T07:16:20.213Z,94.60
2018-12-01T07:19:05.716Z,94.70
2018-12-01T07:21:33.953Z,94.70
2018-12-01T07:24:02.193Z,94.60
2018-12-01T07:26:30.364Z,94.70
2018-12-01T07:28:58.560Z,94.80
2018-12-01T07:31:26.711Z,94.80
2018-12-01T07:33:54.877Z,94.70
2018-12-01T07:36:23.065Z,94.70
2018-12-01T07:38:51.242Z,94.70
2018-12-01T07:41:19.401Z,94.70
2018-12-01T07:43:47.673Z,94.60
2018-12-01T07:46:15.842Z,94.60
2018-12-01T07:48:44.023Z,94.60
2018-12-01T07:51:12.314Z,94.60
2018-12-01T07:53:40.474Z,94.70
2018-12-01T07:56:08.636Z,94.70
2018-12-01T07:58:36.837Z,94.70
2018-12-01T08:01:05.249Z,94.60
2018-12-01T08:03:33.465Z,94.70
2018-12-01T08:06:01.741Z,94.60
2018-12-01T08:08:29.921Z,94.60
2018-12-01T08:10:58.094Z,94.50
2018-12-01T08:13:26.305Z,94.50
2018-12-01T08:15:54.745Z,94.50
2018-12-01T08:18:22.938Z,94.50
2018-12-01T08:20:51.113Z,94.40
2018-12-01T08:23:19.269Z,94.50
2018-12-01T08:25:47.445Z,94.50
2018-12-01T08:28:17.541Z,94.40
2018-12-01T08:30:45.731Z,94.30
2018-12-01T08:33:13.913Z,94.40
2018-12-01T08:35:42.099Z,94.60
2018-12-01T08:38:10.250Z,94.60
2018-12-01T08:40:38.416Z,94.30
2018-12-01T08:43:06.626Z,94.20
2018-12-01T08:45:34.776Z,94.10
2018-12-01T08:48:03.013Z,93.90
2018-12-01T08:50:31.236Z,93.90
2018-12-01T08:52:59.399Z,93.90
2018-12-01T08:55:27.565Z,94.30
2018-12-01T08:57:55.770Z,93.80
2018-12-01T09:00:29.272Z,93.90
2018-12-01T09:02:58.930Z,93.70
2018-12-01T09:05:27.122Z,93.30
2018-12-01T09:07:55.371Z,93.10
2018-12-01T09:10:23.588Z,93.30
2018-12-01T09:12:51.749Z,92.90
2018-12-01T09:15:19.912Z,92.90
2018-12-01T09:17:48.116Z,92.20
2018-12-01T09:20:16.256Z,92.20
2018-12-01T09:22:45.414Z,92.10
2018-12-01T09:25:14.749Z,91.80
2018-12-01T09:27:42.994Z,92.10
2018-12-01T09:30:15.484Z,92.30
2018-12-01T09:32:43.684Z,92.20
2018-12-01T09:35:11.865Z,91.80
2018-12-01T09:37:40.061Z,91.50
2018-12-01T09:40:09.794Z,91.70
2018-12-01T09:42:38.026Z,91.00
2018-12-01T09:45:10.227Z,91.30
2018-12-01T09:47:38.399Z,91.00
2018-12-01T09:50:09.289Z,90.20
2018-12-01T09:52:37.490Z,88.50
2018-12-01T09:55:08.360Z,88.40
2018-12-01T09:57:36.593Z,87.50
2018-12-01T10:00:08.809Z,86.30
2018-12-01T10:02:37.049Z,87.20
2018-12-01T10:05:06.694Z,88.00
2018-12-01T10:07:34.897Z,88.50
2018-12-01T10:10:03.260Z,88.50
2018-12-01T10:12:31.465Z,89.10
2018-12-01T10:14:59.624Z,88.20
2018-12-01T10:17:27.820Z,88.50
2018-12-01T10:19:55.973Z,87.50
2018-12-01T10:22:24.093Z,86.40
2018-12-01T10:24:52.345Z,85.60
2018-12-01T10:27:20.500Z,85.10
2018-12-01T10:29:48.854Z,84.40
2018-12-01T10:32:17.273Z,85.10
2018-12-01T10:34:45.583Z,84.90
2018-12-01T10:37:13.813Z,84.50
2018-12-01T10:39:42.014Z,83.40
2018-12-01T10:42:10.160Z,82.90
2018-12-01T10:44:38.338Z,84.10
2018-12-01T10:47:06.551Z,83.10
2018-12-01T10:49:34.789Z,81.70
2018-12-01T10:52:02.962Z,81.30
2018-12-01T10:54:31.169Z,81.00
2018-12-01T10:56:59.433Z,79.20
2018-12-01T10:59:27.600Z,79.30
2018-12-01T11:02:01.213Z,79.70
2018-12-01T11:04:34.797Z,80.60
2018-12-01T11:07:02.981Z,80.40
2018-12-01T11:09:31.132Z,80.30
2018-12-01T11:11:59.307Z,80.20
2018-12-01T11:14:27.518Z,80.10
2018-12-01T11:16:55.755Z,81.00
2018-12-01T11:19:24.018Z,81.00
2018-12-01T11:21:52.213Z,80.90
2018-12-01T11:24:20.366Z,80.40
2018-12-01T11:26:48.537Z,80.40
2018-12-01T11:29:16.741Z,80.30
2018-12-01T11:31:44.897Z,81.00
2018-12-01T11:34:13.093Z,81.90
2018-12-01T11:36:41.263Z,81.80
2018-12-01T11:39:09.494Z,79.50
2018-12-01T11:41:37.679Z,76.90
2018-12-01T11:44:07.190Z,75.60
2018-12-01T11:46:34.961Z,74.00
2018-12-01T11:49:03.125Z,72.10
2018-12-01T11:51:31.316Z,72.30
2018-12-01T11:53:59.470Z,72.20
2018-12-01T11:56:27.649Z,72.80
2018-12-01T11:58:55.844Z,74.20
2018-12-01T12:01:23.984Z,74.70
2018-12-01T12:03:52.161Z,75.30
2018-12-01T12:06:20.365Z,76.30
2018-12-01T12:08:48.541Z,77.00
2018-12-01T12:11:16.758Z,77.10
2018-12-01T12:13:44.984Z,75.80
2018-12-01T12:16:13.125Z,75.00
2018-12-01T12:18:41.301Z,74.40
2018-12-01T12:21:09.505Z,73.40
2018-12-01T12:23:37.709Z,71.40
2018-12-01T12:26:05.976Z,71.60
2018-12-01T12:28:34.211Z,71.50
2018-12-01T12:31:02.455Z,70.90
2018-12-01T12:33:30.673Z,71.00
2018-12-01T12:35:58.863Z,71.60
2018-12-01T12:38:26.998Z,72.10
2018-12-01T12:40:55.225Z,72.60
2018-12-01T12:43:23.506Z,71.90
2018-12-01T12:45:51.737Z,72.30
2018-12-01T12:48:19.961Z,72.50
2018-12-01T12:50:52.976Z,71.40
2018-12-01T12:53:16.342Z,70.50
2018-12-01T12:55:44.521Z,71.50
2018-12-01T12:58:12.728Z,72.00
2018-12-01T13:00:40.973Z,73.70
2018-12-01T13:03:10.573Z,74.30
2018-12-01T13:05:41.098Z,74.10
2018-12-01T13:08:10.185Z,75.10
2018-12-01T13:10:38.393Z,75.60
2018-12-01T13:13:06.994Z,74.90
2018-12-01T13:15:36.825Z,74.80
2018-12-01T13:18:07.074Z,74.60
2018-12-01T13:20:35.296Z,74.10
2018-12-01T13:23:03.535Z,74.30
2018-12-01T13:25:31.745Z,74.70
2018-12-01T13:28:08.652Z,74.60
2018-12-01T13:30:41.484Z,74.60
2018-12-01T13:33:09.642Z,74.50
2018-12-01T13:35:37.813Z,74.10
2018-12-01T13:38:06.797Z,73.70
2018-12-01T13:40:34.984Z,73.40
2018-12-01T13:43:03.156Z,73.40
2018-12-01T13:45:31.365Z,74.70
2018-12-01T13:47:59.601Z,75.40
2018-12-01T13:50:27.782Z,75.60
2018-12-01T13:52:58.139Z,76.60
2018-12-01T13:55:26.381Z,78.20
2018-12-01T13:57:54.554Z,78.10
2018-12-01T14:00:23.940Z,78.70
2018-12-01T14:02:52.185Z,79.20
2018-12-01T14:05:20.396Z,79.60
2018-12-01T14:07:48.613Z,79.80
2018-12-01T14:10:19.777Z,81.00
2018-12-01T14:12:50.229Z,81.30
2018-12-01T14:15:19.508Z,81.10
2018-12-01T14:17:48.033Z,81.20
2018-12-01T14:20:16.802Z,81.10
2018-12-01T14:22:45.981Z,80.80
2018-12-01T14:25:15.277Z,81.30
2018-12-01T14:27:52.725Z,81.60
2018-12-01T14:30:21.281Z,82.00
2018-12-01T14:32:49.460Z,83.30
2018-12-01T14:35:22.033Z,83.00
2018-12-01T14:37:56.750Z,83.40
2018-12-01T14:40:24.997Z,83.90
2018-12-01T14:42:53.227Z,84.40
2018-12-01T14:45:21.385Z,84.50
2018-12-01T14:47:49.589Z,85.30
2018-12-01T14:50:17.855Z,83.90
2018-12-01T14:52:46.825Z,83.60
2018-12-01T14:55:16.149Z,83.30
2018-12-01T14:57:44.775Z,84.40
2018-12-01T15:00:19.010Z,84.80
2018-12-01T15:02:47.673Z,85.00
2018-12-01T15:05:15.937Z,85.20
2018-12-01T15:07:44.672Z,85.60
2018-12-01T15:10:21.870Z,85.60
2018-12-01T15:12:50.163Z,86.10
2018-12-01T15:15:19.805Z,86.40
2018-12-01T15:17:48.161Z,86.60
2018-12-01T15:20:18.219Z,87.50
2018-12-01T15:22:50.469Z,87.80
2018-12-01T15:25:20.729Z,88.20
2018-12-01T15:27:48.974Z,88.30
2018-12-01T15:30:23.001Z,88.40
2018-12-01T15:32:55.736Z,89.20
2018-12-01T15:35:23.984Z,89.40
2018-12-01T15:37:52.206Z,89.60
2018-12-01T15:40:20.453Z,90.00
2018-12-01T15:42:48.754Z,90.20
2018-12-01T15:45:18.978Z,90.10
2018-12-01T15:47:47.185Z,90.30
2018-12-01T15:50:20.365Z,90.20
2018-12-01T15:52:53.767Z,90.20
2018-12-01T15:55:22.652Z,90.10
2018-12-01T15:57:50.893Z,90.10
2018-12-01T16:00:20.205Z,90.10
2018-12-01T16:02:48.536Z,90.30
2018-12-01T16:05:17.678Z,90.50
2018-12-01T16:07:46.216Z,90.30
2018-12-01T16:10:16.417Z,90.50
2018-12-01T16:12:45.581Z,90.50
2018-12-01T16:15:25.340Z,90.50
2018-12-01T16:17:53.554Z,90.40
2018-12-01T16:20:21.725Z,90.50
2018-12-01T16:22:49.965Z,90.50
2018-12-01T16:25:19.463Z,90.50
2018-12-01T16:27:48.254Z,90.50
2018-12-01T16:30:24.633Z,90.70
2018-12-01T16:32:54.416Z,91.30
2018-12-01T16:35:22.629Z,91.00
2018-12-01T16:37:50.840Z,90.70
2018-12-01T16:40:22.929Z,90.90
2018-12-01T16:42:51.245Z,90.70
2018-12-01T16:45:19.460Z,90.80
2018-12-01T16:47:47.701Z,91.10
2018-12-01T16:50:16.129Z,91.30
2018-12-01T16:52:45.030Z,91.50
2018-12-01T16:55:15.372Z,91.40
2018-12-01T16:57:43.622Z,91.60
2018-12-01T17:00:13.954Z,92.10
2018-12-01T17:02:42.454Z,92.20
2018-12-01T17:05:12.038Z,91.90
2018-12-01T17:07:40.257Z,91.80
2018-12-01T17:10:14.650Z,91.90
2018-12-01T17:13:46.485Z,91.70
2018-12-01T17:16:14.750Z,91.40
2018-12-01T17:18:42.994Z,91.90
2018-12-01T17:21:11.187Z,91.70
2018-12-01T17:23:39.469Z,91.90
2018-12-01T17:26:07.828Z,92.40
2018-12-01T17:28:36.000Z,92.40
2018-12-01T17:31:04.202Z,92.70
2018-12-01T17:33:32.545Z,92.90
2018-12-01T17:36:00.806Z,92.40
2018-12-01T17:38:29.017Z,92.20
2018-12-01T17:41:01.422Z,92.40
2018-12-01T17:43:37.502Z,92.30
2018-12-01T17:46:05.695Z,92.70
2018-12-01T17:48:33.893Z,92.60
2018-12-01T17:51:02.165Z,92.80
2018-12-01T17:53:30.426Z,93.10
2018-12-01T17:55:58.585Z,93.00
2018-12-01T17:58:26.801Z,93.30
2018-12-01T18:00:55.043Z,93.20
2018-12-01T18:03:23.213Z,93.10
2018-12-01T18:05:51.553Z,93.00
2018-12-01T18:08:21.776Z,93.00
2018-12-01T18:10:51.509Z,93.00
2018-12-01T18:13:19.893Z,93.00
2018-12-01T18:15:48.085Z,92.90
2018-12-01T18:18:16.302Z,92.90
2018-12-01T18:20:44.520Z,92.90
2018-12-01T18:23:14.394Z,93.10
2018-12-01T18:25:51.017Z,93.20
2018-12-01T18:28:31.880Z,93.10
2018-12-01T18:31:00.093Z,93.00
2018-12-01T18:33:32.085Z,93.10
2018-12-01T18:36:00.349Z,93.40
2018-12-01T18:38:28.621Z,93.40
2018-12-01T18:40:56.909Z,93.70
2018-12-01T18:43:25.132Z,93.70
2018-12-01T18:45:55.036Z,93.70
2018-12-01T18:48:23.369Z,93.90
2018-12-01T18:50:51.622Z,93.50
2018-12-01T18:53:19.863Z,93.50
2018-12-01T18:55:51.241Z,93.70
2018-12-01T18:58:19.560Z,93.90
2018-12-01T19:00:54.195Z,94.00
2018-12-01T19:03:23.773Z,94.10
2018-12-01T19:05:51.992Z,94.10
2018-12-01T19:08:20.196Z,94.10
2018-12-01T19:10:48.493Z,94.20
2018-12-01T19:13:16.717Z,94.10
2018-12-01T19:15:44.972Z,94.10
2018-12-01T19:18:13.167Z,94.10
2018-12-01T19:20:41.360Z,94.00
2018-12-01T19:23:11.247Z,93.90
2018-12-01T19:25:41.031Z,94.00
2018-12-01T19:28:09.261Z,94.10
2018-12-01T19:30:37.549Z,94.00
2018-12-01T19:33:17.198Z,93.90
2018-12-01T19:35:46.366Z,94.20
2018-12-01T19:38:18.210Z,94.20
2018-12-01T19:40:46.512Z,94.10
2018-12-01T19:43:14.727Z,94.30
2018-12-01T19:45:43.001Z,94.30
2018-12-01T19:48:11.476Z,94.30
2018-12-01T19:50:40.477Z,94.40
2018-12-01T19:53:11.794Z,94.50
2018-12-01T19:55:40.073Z,94.50
2018-12-01T19:58:10.940Z,94.60
2018-12-01T20:00:40.058Z,94.60
2018-12-01T20:03:14.993Z,94.70
2018-12-01T20:05:43.242Z,94.70
2018-12-01T20:08:11.857Z,94.80
2018-12-01T20:10:52.653Z,94.70
2018-12-01T20:13:31.909Z,94.70
2018-12-01T20:16:08.765Z,94.70
2018-12-01T20:18:37.054Z,94.80
2018-12-01T20:21:05.657Z,94.70
2018-12-01T20:23:33.949Z,94.60
2018-12-01T20:26:02.237Z,94.60
2018-12-01T20:28:30.502Z,94.80
2018-12-01T20:30:58.833Z,94.70
2018-12-01T20:33:27.088Z,94.90
2018-12-01T20:36:14.546Z,95.00
2018-12-01T20:38:48.214Z,95.00
2018-12-01T20:41:16.461Z,95.10
2018-12-01T20:43:44.740Z,95.10
2018-12-01T20:46:13.042Z,95.10
2018-12-01T20:48:41.280Z,95.20
2018-12-01T20:51:09.542Z,95.30
2018-12-01T20:53:37.809Z,95.20
2018-12-01T20:56:09.349Z,95.30
2018-12-01T20:58:37.589Z,95.30
2018-12-01T21:01:06.057Z,95.30
2018-12-01T21:03:34.342Z,95.20
2018-12-01T21:06:02.530Z,95.30
2018-12-01T21:08:30.709Z,95.30
2018-12-01T21:11:02.174Z,95.40
2018-12-01T21:13:30.332Z,95.40
2018-12-01T21:15:58.524Z,95.50
2018-12-01T21:18:26.913Z,95.40
2018-12-01T21:20:55.181Z,95.50
2018-12-01T21:23:23.424Z,95.40
2018-12-01T21:25:51.736Z,95.30
2018-12-01T21:28:20.892Z,95.40
2018-12-01T21:30:49.042Z,95.40
2018-12-01T21:33:21.477Z,95.50
2018-12-01T21:35:49.737Z,95.50
2018-12-01T21:38:17.974Z,95.50
2018-12-01T21:40:46.261Z,95.40
2018-12-01T21:43:14.557Z,95.50
2018-12-01T21:45:42.731Z,95.50
2018-12-01T21:48:12.204Z,95.40
2018-12-01T21:50:41.972Z,95.10
2018-12-01T21:53:11.744Z,95.20
2018-12-01T21:55:39.991Z,95.30
2018-12-01T21:58:08.392Z,95.30
2018-12-01T22:00:37.886Z,95.40
2018-12-01T22:03:08.589Z,95.40
2018-12-01T22:05:41.521Z,95.40
2018-12-01T22:08:11.526Z,95.40
2018-12-01T22:10:39.728Z,95.50
2018-12-01T22:13:07.993Z,95.50
2018-12-01T22:15:36.160Z,95.40
2018-12-01T22:18:04.333Z,95.40
2018-12-01T22:20:32.521Z,95.30
2018-12-01T22:23:00.682Z,95.30
2018-12-01T22:25:28.841Z,95.40
2018-12-01T22:27:57.036Z,95.50
2018-12-01T22:30:25.191Z,95.50
2018-12-01T22:32:56.619Z,95.40
2018-12-01T22:35:26.634Z,95.30
2018-12-01T22:37:55.517Z,95.30
2018-12-01T22:40:25.141Z,95.00
2018-12-01T22:42:54.722Z,95.20
2018-12-01T22:45:22.936Z,95.20
2018-12-01T22:47:51.151Z,95.10
2018-12-01T22:50:20.517Z,94.90
2018-12-01T22:52:49.055Z,94.90
2018-12-01T22:55:18.509Z,95.00
2018-12-01T22:57:48.371Z,95.10
2018-12-01T23:00:20.277Z,95.00
2018-12-01T23:02:48.444Z,95.10
2018-12-01T23:05:17.094Z,95.20
2018-12-01T23:07:44.813Z,95.30
2018-12-01T23:10:16.005Z,95.20
2018-12-01T23:12:45.317Z,95.20
2018-12-01T23:15:17.272Z,95.20
2018-12-01T23:17:46.815Z,95.30
2018-12-01T23:20:17.293Z,95.20
2018-12-01T23:22:45.549Z,95.30
2018-12-01T23:25:13.812Z,95.30
2018-12-01T23:27:42.056Z,95.30
2018-12-01T23:30:26.333Z,95.20
2018-12-01T23:32:56.929Z,95.20
2018-12-01T23:35:25.210Z,95.30
2018-12-01T23:37:53.427Z,95.30
2018-12-01T23:40:21.670Z,95.30
2018-12-01T23:42:49.837Z,95.30
2018-12-01T23:45:19.074Z,95.40
2018-12-01T23:47:47.777Z,95.20
2018-12-01T23:50:19.041Z,95.20
2018-12-01T23:52:49.480Z,95.20
2018-12-01T23:55:17.673Z,95.30
2018-12-01T23:57:45.873Z,95.40
